createdAt,value
2023-05-18T00:05:20.844Z,9.02
2023-05-18T00:10:43.120Z,9.03
2023-05-18T00:16:05.251Z,8.82
2023-05-18T00:21:31.089Z,8.82
2023-05-18T00:26:52.684Z,8.70
2023-05-18T00:32:14.645Z,8.56
2023-05-18T00:37:36.673Z,8.59
2023-05-18T00:42:59.151Z,8.61
2023-05-18T00:48:21.059Z,8.62
2023-05-18T00:53:44.314Z,8.58
2023-05-18T00:59:06.176Z,8.59
2023-05-18T01:04:32.609Z,8.62
2023-05-18T01:09:55.235Z,8.65
2023-05-18T01:15:26.988Z,8.71
2023-05-18T01:20:58.596Z,8.57
2023-05-18T01:26:38.203Z,8.63
2023-05-18T01:32:00.428Z,8.77
2023-05-18T01:37:23.873Z,8.71
2023-05-18T01:42:57.232Z,8.64
2023-05-18T01:48:24.793Z,8.78
2023-05-18T01:53:55.569Z,8.84
2023-05-18T01:59:18.595Z,8.94
2023-05-18T02:04:41.176Z,8.77
2023-05-18T02:10:03.198Z,8.89
2023-05-18T02:15:26.098Z,8.94
2023-05-18T02:20:49.722Z,8.90
2023-05-18T02:26:19.945Z,9.20
2023-05-18T02:31:47.915Z,9.25
2023-05-18T02:37:11.133Z,9.45
2023-05-18T02:42:35.635Z,9.45
2023-05-18T02:47:57.926Z,9.58
2023-05-18T02:53:21.634Z,9.77
2023-05-18T02:58:44.748Z,9.85
2023-05-18T03:04:14.648Z,10.13
2023-05-18T03:09:42.500Z,10.38
2023-05-18T03:15:04.561Z,10.42
2023-05-18T03:20:27.221Z,10.50
2023-05-18T03:25:54.200Z,10.71
2023-05-18T03:31:19.296Z,11.04
2023-05-18T03:36:42.914Z,11.48
2023-05-18T03:42:05.304Z,11.95
2023-05-18T03:47:27.635Z,12.45
2023-05-18T03:52:49.441Z,12.95
2023-05-18T03:58:11.437Z,13.23
2023-05-18T04:03:35.292Z,13.90
2023-05-18T04:08:57.160Z,14.35
2023-05-18T04:14:25.434Z,15.07
2023-05-18T04:19:47.516Z,15.27
2023-05-18T04:25:12.164Z,15.75
2023-05-18T04:30:33.866Z,16.23
2023-05-18T04:35:56.033Z,17.03
2023-05-18T04:41:21.099Z,17.72
2023-05-18T04:46:43.604Z,18.55
2023-05-18T04:52:08.662Z,19.17
2023-05-18T04:57:33.177Z,19.51
2023-05-18T05:02:56.723Z,20.61
2023-05-18T05:08:19.123Z,21.35
2023-05-18T05:13:41.482Z,21.78
2023-05-18T05:19:04.054Z,22.37
2023-05-18T05:24:26.126Z,23.10
2023-05-18T05:29:48.564Z,23.50
2023-05-18T05:35:10.954Z,24.15
2023-05-18T05:40:33.686Z,24.33
2023-05-18T05:45:56.370Z,24.49
2023-05-18T05:51:19.483Z,24.60
2023-05-18T05:56:41.703Z,24.83
2023-05-18T06:02:05.182Z,25.10
2023-05-18T06:07:27.260Z,25.65
2023-05-18T06:12:50.169Z,26.37
2023-05-18T06:18:13.651Z,26.71
2023-05-18T06:23:35.932Z,26.98
2023-05-18T06:28:58.226Z,26.77
2023-05-18T06:34:25.624Z,26.70
2023-05-18T06:39:47.311Z,27.26
2023-05-18T06:45:09.473Z,27.14
2023-05-18T06:50:45.556Z,27.02
2023-05-18T06:56:07.594Z,27.17
2023-05-18T07:01:31.579Z,27.61
2023-05-18T07:06:56.795Z,27.66
2023-05-18T07:12:18.911Z,27.63
2023-05-18T07:17:41.449Z,27.87
2023-05-18T07:23:03.403Z,28.08
2023-05-18T07:28:25.242Z,27.76
2023-05-18T07:33:47.367Z,27.34
2023-05-18T07:39:09.700Z,28.04
2023-05-18T07:44:31.901Z,28.24
2023-05-18T07:49:56.466Z,28.68
2023-05-18T07:55:18.359Z,28.19
2023-05-18T08:00:40.808Z,28.85
2023-05-18T08:06:02.707Z,28.05
2023-05-18T08:11:24.844Z,27.87
2023-05-18T08:16:46.978Z,27.00
2023-05-18T08:22:09.278Z,26.78
2023-05-18T08:27:31.609Z,26.59
2023-05-18T08:32:53.497Z,27.39
2023-05-18T08:38:15.526Z,26.34
2023-05-18T08:43:42.477Z,27.17
2023-05-18T08:49:06.085Z,26.22
2023-05-18T08:54:30.319Z,25.96
2023-05-18T08:59:54.021Z,26.51
2023-05-18T09:05:17.464Z,25.77
2023-05-18T09:10:40.238Z,25.65
2023-05-18T09:16:01.990Z,25.89
2023-05-18T09:21:24.087Z,27.02
2023-05-18T09:26:49.611Z,27.11
2023-05-18T09:32:11.677Z,26.68
2023-05-18T09:37:34.604Z,26.53
2023-05-18T09:42:56.926Z,26.71
2023-05-18T09:48:18.818Z,25.84
2023-05-18T09:53:41.284Z,25.57
2023-05-18T09:59:13.906Z,25.26
2023-05-18T10:04:40.525Z,24.92
2023-05-18T10:10:05.834Z,25.60
2023-05-18T10:15:29.135Z,25.91
2023-05-18T10:20:53.120Z,25.89
2023-05-18T10:26:19.621Z,25.12
2023-05-18T10:31:44.388Z,24.85
2023-05-18T10:37:09.242Z,25.74
2023-05-18T10:42:33.909Z,25.91
2023-05-18T10:48:00.469Z,25.54
2023-05-18T10:53:24.593Z,25.84
2023-05-18T10:58:47.083Z,25.91
2023-05-18T11:04:09.133Z,26.15
2023-05-18T11:09:31.198Z,25.42
2023-05-18T11:14:55.499Z,25.49
2023-05-18T11:20:17.957Z,26.18
2023-05-18T11:25:41.280Z,25.99
2023-05-18T11:31:03.396Z,26.41
2023-05-18T11:36:27.002Z,26.96
2023-05-18T11:42:00.420Z,26.68
2023-05-18T11:47:24.449Z,26.82
2023-05-18T11:52:48.326Z,26.64
2023-05-18T11:58:11.083Z,26.28
2023-05-18T12:03:34.389Z,26.24
2023-05-18T12:08:59.304Z,26.22
2023-05-18T12:14:22.433Z,26.03
2023-05-18T12:19:45.829Z,25.71
2023-05-18T12:25:08.841Z,25.26
2023-05-18T12:30:45.101Z,25.97
2023-05-18T12:36:12.144Z,26.55
2023-05-18T12:41:34.371Z,26.52
2023-05-18T12:46:59.645Z,26.32
2023-05-18T12:52:23.619Z,26.56
2023-05-18T12:57:46.866Z,26.64
2023-05-18T13:03:16.465Z,26.99
2023-05-18T13:08:38.929Z,26.51
2023-05-18T13:14:11.508Z,26.14
2023-05-18T13:19:37.354Z,26.69
2023-05-18T13:24:59.032Z,26.32
2023-05-18T13:30:21.551Z,26.72
2023-05-18T13:35:44.521Z,26.80
2023-05-18T13:41:06.922Z,26.34
2023-05-18T13:46:28.878Z,26.44
2023-05-18T13:51:51.221Z,26.27
2023-05-18T13:57:12.945Z,25.66
2023-05-18T14:02:35.066Z,25.11
2023-05-18T14:07:57.255Z,25.58
2023-05-18T14:13:19.101Z,25.74
2023-05-18T14:18:41.225Z,25.71
2023-05-18T14:24:04.418Z,25.52
2023-05-18T14:29:26.236Z,25.54
2023-05-18T14:34:56.391Z,24.89
2023-05-18T14:40:17.980Z,24.87
2023-05-18T14:45:40.101Z,24.79
2023-05-18T14:51:01.954Z,24.33
2023-05-18T14:56:24.371Z,24.14
2023-05-18T15:01:46.293Z,24.62
2023-05-18T15:07:08.614Z,24.78
2023-05-18T15:12:30.408Z,24.72
2023-05-18T15:17:52.357Z,25.13
2023-05-18T15:23:14.463Z,25.42
2023-05-18T15:28:36.368Z,25.48
2023-05-18T15:33:58.422Z,25.23
2023-05-18T15:39:20.858Z,24.46
2023-05-18T15:44:42.521Z,23.80
2023-05-18T15:50:05.086Z,23.65
2023-05-18T15:55:26.878Z,23.31
2023-05-18T16:00:49.104Z,22.69
2023-05-18T16:06:11.209Z,22.30
2023-05-18T16:11:33.107Z,21.90
2023-05-18T16:16:55.101Z,21.65
2023-05-18T16:22:17.163Z,21.41
2023-05-18T16:27:38.873Z,21.31
2023-05-18T16:33:00.899Z,21.08
2023-05-18T16:38:26.149Z,20.81
2023-05-18T16:43:48.093Z,20.48
2023-05-18T16:49:09.983Z,20.18
2023-05-18T16:54:32.051Z,19.89
2023-05-18T16:59:54.061Z,19.44
2023-05-18T17:05:18.180Z,19.14
2023-05-18T17:10:41.201Z,18.66
2023-05-18T17:16:03.242Z,18.33
2023-05-18T17:21:25.399Z,18.06
2023-05-18T17:26:47.701Z,17.77
2023-05-18T17:32:21.626Z,17.46
2023-05-18T17:37:43.590Z,17.18
2023-05-18T17:43:05.945Z,16.89
2023-05-18T17:48:27.825Z,16.63
2023-05-18T17:53:50.094Z,16.29
2023-05-18T17:59:11.773Z,16.11
2023-05-18T18:04:33.462Z,15.93
2023-05-18T18:09:55.849Z,15.67
2023-05-18T18:15:17.895Z,15.52
2023-05-18T18:20:40.338Z,15.41
2023-05-18T18:26:02.982Z,15.23
2023-05-18T18:31:28.965Z,15.02
2023-05-18T18:36:51.022Z,14.94
2023-05-18T18:42:13.358Z,14.82
2023-05-18T18:47:41.762Z,14.81
2023-05-18T18:53:04.758Z,14.75
2023-05-18T18:58:26.885Z,15.02
2023-05-18T19:03:48.752Z,15.03
2023-05-18T19:09:10.736Z,15.10
2023-05-18T19:14:36.868Z,15.08
2023-05-18T19:19:59.702Z,15.16
2023-05-18T19:25:36.756Z,15.37
2023-05-18T19:31:02.937Z,15.56
2023-05-18T19:36:24.790Z,15.32
2023-05-18T19:41:47.267Z,15.40
2023-05-18T19:47:09.433Z,15.32
2023-05-18T19:52:32.286Z,15.20
2023-05-18T19:57:55.260Z,14.73
2023-05-18T20:03:17.484Z,14.60
2023-05-18T20:08:40.737Z,14.64
2023-05-18T20:14:03.550Z,14.46
2023-05-18T20:19:28.257Z,14.18
2023-05-18T20:24:50.995Z,13.88
2023-05-18T20:30:13.323Z,13.64
2023-05-18T20:35:36.850Z,13.57
2023-05-18T20:41:00.170Z,13.37
2023-05-18T20:46:26.876Z,13.31
2023-05-18T20:51:50.308Z,13.26
2023-05-18T20:57:12.526Z,13.27
2023-05-18T21:02:38.371Z,13.08
2023-05-18T21:08:00.850Z,12.98
2023-05-18T21:13:23.481Z,12.88
2023-05-18T21:18:45.773Z,12.87
2023-05-18T21:24:10.165Z,12.79
2023-05-18T21:29:32.102Z,12.76
2023-05-18T21:34:54.029Z,12.69
2023-05-18T21:40:16.486Z,12.51
2023-05-18T21:45:38.319Z,12.45
2023-05-18T21:51:00.694Z,12.41
2023-05-18T21:56:23.091Z,12.46
2023-05-18T22:01:44.806Z,12.43
2023-05-18T22:07:06.843Z,12.42
2023-05-18T22:12:28.800Z,12.38
2023-05-18T22:17:50.840Z,12.38
2023-05-18T22:23:12.823Z,12.44
2023-05-18T22:28:34.910Z,12.57
2023-05-18T22:33:57.117Z,12.61
2023-05-18T22:39:19.675Z,12.71
2023-05-18T22:44:41.432Z,12.71
2023-05-18T22:50:03.755Z,12.62
2023-05-18T22:55:25.907Z,12.83
2023-05-18T23:00:47.691Z,12.73
2023-05-18T23:06:09.858Z,12.72
2023-05-18T23:11:35.423Z,12.73
2023-05-18T23:16:58.937Z,12.66
2023-05-18T23:22:21.203Z,12.68
2023-05-18T23:27:43.397Z,12.67
2023-05-18T23:33:06.800Z,12.77
2023-05-18T23:38:35.245Z,12.81
2023-05-18T23:43:58.171Z,12.84
2023-05-18T23:49:20.864Z,12.83
2023-05-18T23:54:44.581Z,12.96
